createdAt,value
2022-12-28T00:01:31.049Z,99949.65
2022-12-28T00:03:59.826Z,99943.58
2022-12-28T00:06:27.476Z,99945.31
2022-12-28T00:08:55.575Z,99945.66
2022-12-28T00:11:27.818Z,99940.45
2022-12-28T00:14:00.384Z,99938.37
2022-12-28T00:16:28.852Z,99938.73
2022-12-28T00:18:56.711Z,99937.69
2022-12-28T00:21:24.777Z,99936.13
2022-12-28T00:23:53.074Z,99927.80
2022-12-28T00:26:19.962Z,99926.23
2022-12-28T00:28:47.971Z,99919.81
2022-12-28T00:31:15.265Z,99918.61
2022-12-28T00:33:42.341Z,99920.88
2022-12-28T00:36:13.142Z,99922.11
2022-12-28T00:38:40.285Z,99924.73
2022-12-28T00:41:07.755Z,99922.29
2022-12-28T00:43:35.208Z,99919.17
2022-12-28T00:46:01.964Z,99919.18
2022-12-28T00:48:28.571Z,99912.59
2022-12-28T00:51:07.902Z,99901.67
2022-12-28T00:53:35.735Z,99897.33
2022-12-28T00:56:17.820Z,99892.13
2022-12-28T00:58:44.923Z,99883.98
2022-12-28T01:01:15.217Z,99888.17
2022-12-28T01:03:42.347Z,99886.97
2022-12-28T01:06:11.499Z,99885.24
2022-12-28T01:08:39.769Z,99883.70
2022-12-28T01:11:11.599Z,99879.20
2022-12-28T01:13:38.660Z,99877.64
2022-12-28T01:16:20.266Z,99878.69
2022-12-28T01:18:48.559Z,99875.23
2022-12-28T01:21:18.948Z,99870.90
2022-12-28T01:23:47.719Z,99866.92
2022-12-28T01:26:15.098Z,99866.23
2022-12-28T01:28:41.790Z,99862.77
2022-12-28T01:31:11.885Z,99863.63
2022-12-28T01:33:38.714Z,99861.55
2022-12-28T01:36:07.132Z,99856.52
2022-12-28T01:38:34.566Z,99854.60
2022-12-28T01:41:02.130Z,99849.21
2022-12-28T01:43:39.351Z,99847.65
2022-12-28T01:46:09.417Z,99844.88
2022-12-28T01:48:41.038Z,99848.86
2022-12-28T01:51:07.828Z,99855.80
2022-12-28T01:53:34.331Z,99851.98
2022-12-28T01:56:01.031Z,99844.52
2022-12-28T01:58:30.556Z,99840.19
2022-12-28T02:00:57.145Z,99835.13
2022-12-28T02:03:27.105Z,99831.48
2022-12-28T02:05:56.666Z,99827.64
2022-12-28T02:08:29.688Z,99815.83
2022-12-28T02:10:57.578Z,99809.23
2022-12-28T02:13:25.124Z,99807.34
2022-12-28T02:15:51.723Z,99808.20
2022-12-28T02:18:20.602Z,99804.55
2022-12-28T02:21:12.013Z,99801.96
2022-12-28T02:24:09.656Z,99800.42
2022-12-28T02:26:52.450Z,99794.17
2022-12-28T02:29:27.978Z,99789.98
2022-12-28T02:32:18.957Z,99783.90
2022-12-28T02:35:18.991Z,99780.91
2022-12-28T02:37:54.782Z,99778.27
2022-12-28T02:40:29.826Z,99774.95
2022-12-28T02:42:57.651Z,99775.27
2022-12-28T02:45:50.792Z,99773.83
2022-12-28T02:48:36.884Z,99769.63
2022-12-28T02:51:37.622Z,99765.41
2022-12-28T02:54:32.855Z,99765.37
2022-12-28T02:57:36.431Z,99754.74
2022-12-28T03:00:09.330Z,99753.11
2022-12-28T03:02:38.818Z,99741.25
2022-12-28T03:05:11.216Z,99732.87
2022-12-28T03:08:08.496Z,99730.20
2022-12-28T03:10:46.576Z,99727.00
2022-12-28T03:13:40.401Z,99730.77
2022-12-28T03:16:11.728Z,99728.98
2022-12-28T03:18:59.676Z,99723.56
2022-12-28T03:21:48.658Z,99711.91
2022-12-28T03:24:36.441Z,99708.95
2022-12-28T03:27:29.101Z,99705.82
2022-12-28T03:30:23.122Z,99703.58
2022-12-28T03:32:50.103Z,99697.48
2022-12-28T03:35:21.066Z,99696.08
2022-12-28T03:38:00.204Z,99694.70
2022-12-28T03:40:38.991Z,99691.91
2022-12-28T03:43:34.139Z,99691.40
2022-12-28T03:46:09.057Z,99689.13
2022-12-28T03:48:36.867Z,99685.66
2022-12-28T03:51:03.771Z,99679.77
2022-12-28T03:53:41.567Z,99674.05
2022-12-28T03:56:16.264Z,99670.58
2022-12-28T03:58:44.166Z,99670.91
2022-12-28T04:01:11.129Z,99663.42
2022-12-28T04:03:39.287Z,99653.02
2022-12-28T04:06:07.360Z,99649.20
2022-12-28T04:08:34.015Z,99647.65
2022-12-28T04:11:01.556Z,99648.89
2022-12-28T04:13:30.237Z,99651.14
2022-12-28T04:16:05.773Z,99649.94
2022-12-28T04:18:33.826Z,99648.36
2022-12-28T04:21:01.143Z,99645.04
2022-12-28T04:23:28.030Z,99639.30
2022-12-28T04:26:11.109Z,99632.69
2022-12-28T04:28:38.643Z,99627.46
2022-12-28T04:31:20.410Z,99627.98
2022-12-28T04:34:06.636Z,99628.33
2022-12-28T04:36:38.687Z,99623.44
2022-12-28T04:39:07.177Z,99619.09
2022-12-28T04:41:34.109Z,99618.39
2022-12-28T04:44:00.651Z,99613.86
2022-12-28T04:46:27.144Z,99609.69
2022-12-28T04:48:53.684Z,99600.28
2022-12-28T04:51:25.973Z,99596.29
2022-12-28T04:53:53.619Z,99593.64
2022-12-28T04:56:21.492Z,99596.04
2022-12-28T04:58:48.786Z,99593.56
2022-12-28T05:01:18.671Z,99588.99
2022-12-28T05:03:54.175Z,99587.20
2022-12-28T05:06:23.753Z,99589.40
2022-12-28T05:08:50.993Z,99587.27
2022-12-28T05:11:20.634Z,99588.98
2022-12-28T05:13:47.653Z,99586.16
2022-12-28T05:16:19.907Z,99580.73
2022-12-28T05:18:46.885Z,99580.86
2022-12-28T05:21:27.140Z,99576.84
2022-12-28T05:23:54.387Z,99570.19
2022-12-28T05:26:23.942Z,99567.89
2022-12-28T05:28:50.537Z,99563.17
2022-12-28T05:31:20.379Z,99554.09
2022-12-28T05:33:47.667Z,99547.48
2022-12-28T05:36:20.525Z,99541.70
2022-12-28T05:38:47.471Z,99533.86
2022-12-28T05:41:27.832Z,99524.61
2022-12-28T05:43:56.277Z,99525.58
2022-12-28T05:46:31.998Z,99520.98
2022-12-28T05:48:59.230Z,99517.10
2022-12-28T05:51:29.060Z,99517.22
2022-12-28T05:53:56.031Z,99517.35
2022-12-28T05:56:25.421Z,99517.65
2022-12-28T05:58:57.132Z,99512.04
2022-12-28T06:01:26.520Z,99507.77
2022-12-28T06:03:58.696Z,99511.20
2022-12-28T06:06:25.744Z,99510.29
2022-12-28T06:08:52.689Z,99514.05
2022-12-28T06:11:25.908Z,99514.36
2022-12-28T06:13:52.694Z,99512.59
2022-12-28T06:16:24.680Z,99508.02
2022-12-28T06:18:51.925Z,99514.08
2022-12-28T06:21:21.239Z,99513.86
2022-12-28T06:23:48.724Z,99515.21
2022-12-28T06:26:18.794Z,99512.59
2022-12-28T06:28:46.475Z,99510.66
2022-12-28T06:31:16.393Z,99515.35
2022-12-28T06:33:43.574Z,99516.52
2022-12-28T06:36:19.908Z,99518.24
2022-12-28T06:38:48.746Z,99523.59
2022-12-28T06:41:17.481Z,99524.08
2022-12-28T06:43:45.143Z,99523.86
2022-12-28T06:46:13.499Z,99525.21
2022-12-28T06:48:41.010Z,99527.41
2022-12-28T06:51:12.500Z,99526.63
2022-12-28T06:53:39.330Z,99530.23
2022-12-28T06:56:17.650Z,99532.77
2022-12-28T06:58:45.553Z,99529.93
2022-12-28T07:01:16.047Z,99536.02
2022-12-28T07:03:44.290Z,99538.77
2022-12-28T07:06:12.683Z,99533.01
2022-12-28T07:08:40.023Z,99529.69
2022-12-28T07:11:12.485Z,99526.54
2022-12-28T07:13:40.130Z,99524.28
2022-12-28T07:16:11.981Z,99521.83
2022-12-28T07:18:39.040Z,99523.17
2022-12-28T07:21:08.320Z,99526.45
2022-12-28T07:23:34.851Z,99523.83
2022-12-28T07:26:07.751Z,99520.55
2022-12-28T07:28:39.754Z,99521.61
2022-12-28T07:31:07.983Z,99524.18
2022-12-28T07:33:35.506Z,99523.21
2022-12-28T07:36:04.285Z,99517.40
2022-12-28T07:38:30.831Z,99512.38
2022-12-28T07:41:02.818Z,99510.19
2022-12-28T07:43:29.812Z,99507.67
2022-12-28T07:46:01.113Z,99505.67
2022-12-28T07:48:32.271Z,99499.98
2022-12-28T07:51:20.007Z,99495.58
2022-12-28T07:53:48.368Z,99494.51
2022-12-28T07:56:15.879Z,99497.46
2022-12-28T08:01:14.396Z,99512.40
2022-12-28T08:03:42.199Z,99508.00
2022-12-28T08:06:11.209Z,99499.95
2022-12-28T08:08:40.790Z,99499.58
2022-12-28T08:11:09.976Z,99501.26
2022-12-28T08:13:39.508Z,99497.19
2022-12-28T08:16:07.147Z,99493.42
2022-12-28T08:18:34.247Z,99489.33
2022-12-28T08:21:11.535Z,99487.72
2022-12-28T08:23:38.250Z,99488.36
2022-12-28T08:26:10.895Z,99489.19
2022-12-28T08:28:39.263Z,99484.38
2022-12-28T08:31:11.771Z,99486.03
2022-12-28T08:33:38.498Z,99481.10
2022-12-28T08:36:06.473Z,99480.16
2022-12-28T08:38:33.593Z,99479.09
2022-12-28T08:41:02.040Z,99484.44
2022-12-28T08:43:30.284Z,99477.09
2022-12-28T08:46:02.644Z,99466.77
2022-12-28T08:48:29.535Z,99453.98
2022-12-28T08:51:04.617Z,99450.66
2022-12-28T08:53:31.564Z,99462.45
2022-12-28T08:56:13.711Z,99462.50
2022-12-28T08:58:41.770Z,99459.29
2022-12-28T09:01:11.595Z,99447.45
2022-12-28T09:03:40.983Z,99440.52
2022-12-28T09:06:11.308Z,99434.92
2022-12-28T09:08:38.268Z,99430.58
2022-12-28T09:11:10.377Z,99430.04
2022-12-28T09:13:37.789Z,99425.84
2022-12-28T09:16:08.648Z,99419.73
2022-12-28T09:18:35.802Z,99420.73
2022-12-28T09:21:07.718Z,99412.94
2022-12-28T09:23:34.876Z,99415.46
2022-12-28T09:26:10.748Z,99414.72
2022-12-28T09:28:37.930Z,99413.73
2022-12-28T09:31:06.885Z,99417.77
2022-12-28T09:34:33.672Z,99421.61
2022-12-28T09:36:43.897Z,99422.16
2022-12-28T09:39:16.675Z,99413.30
2022-12-28T09:41:54.847Z,99407.27
2022-12-28T09:45:09.335Z,99405.30
2022-12-28T09:47:46.621Z,99393.91
2022-12-28T09:50:15.961Z,99384.86
2022-12-28T09:52:56.870Z,99374.39
2022-12-28T09:55:24.052Z,99367.80
2022-12-28T09:57:55.430Z,99362.03
2022-12-28T10:00:45.351Z,99354.60
2022-12-28T10:03:14.750Z,99364.58
2022-12-28T10:05:41.593Z,99363.78
2022-12-28T10:08:11.896Z,99359.16
2022-12-28T10:10:43.968Z,99358.35
2022-12-28T10:16:15.947Z,99355.12
2022-12-28T10:18:42.636Z,99351.29
2022-12-28T10:21:10.077Z,99345.33
2022-12-28T10:23:50.184Z,99341.38
2022-12-28T10:26:25.084Z,99341.36
2022-12-28T10:28:56.384Z,99335.20
2022-12-28T10:31:35.671Z,99330.20
2022-12-28T10:34:12.714Z,99329.56
2022-12-28T10:36:39.936Z,99321.83
2022-12-28T10:39:29.044Z,99313.45
2022-12-28T10:41:57.716Z,99311.53
2022-12-28T10:44:40.138Z,99313.50
2022-12-28T10:47:28.792Z,99312.77
2022-12-28T10:50:26.880Z,99313.81
2022-12-28T10:52:41.955Z,99309.62
2022-12-28T10:55:33.219Z,99311.14
2022-12-28T10:58:31.697Z,99310.34
2022-12-28T11:01:14.039Z,99303.59
2022-12-28T11:03:43.500Z,99301.45
2022-12-28T11:06:14.672Z,99290.05
2022-12-28T11:08:42.914Z,99287.02
2022-12-28T11:11:27.588Z,99278.33
2022-12-28T11:14:09.322Z,99271.27
2022-12-28T11:16:37.073Z,99267.45
2022-12-28T11:19:04.200Z,99267.69
2022-12-28T11:21:32.805Z,99266.21
2022-12-28T11:23:59.371Z,99262.23
2022-12-28T11:26:28.311Z,99253.16
2022-12-28T11:28:55.174Z,99243.09
2022-12-28T11:31:34.508Z,99230.83
2022-12-28T11:34:04.627Z,99221.67
2022-12-28T11:36:37.039Z,99218.80
2022-12-28T11:39:25.124Z,99212.24
2022-12-28T11:44:49.978Z,99202.45
2022-12-28T11:47:16.406Z,99202.17
2022-12-28T11:49:45.166Z,99195.79
2022-12-28T11:52:14.425Z,99181.06
2022-12-28T11:54:59.296Z,99176.99
2022-12-28T11:57:53.260Z,99169.57
2022-12-28T12:00:23.812Z,99162.92
2022-12-28T12:02:50.564Z,99163.46
2022-12-28T12:05:35.990Z,99157.70
2022-12-28T12:08:22.507Z,99153.13
2022-12-28T12:11:17.895Z,99140.52
2022-12-28T12:13:48.114Z,99145.57
2022-12-28T12:16:39.769Z,99139.36
2022-12-28T12:19:08.327Z,99141.52
2022-12-28T12:21:44.354Z,99137.05
2022-12-28T12:24:25.937Z,99133.70
2022-12-28T12:26:58.098Z,99136.48
2022-12-28T12:29:38.844Z,99131.34
2022-12-28T12:32:22.388Z,99128.19
2022-12-28T12:35:01.885Z,99120.27
2022-12-28T12:37:36.040Z,99116.95
2022-12-28T12:40:41.330Z,99108.39
2022-12-28T12:43:41.008Z,99093.98
2022-12-28T12:46:13.473Z,99088.56
2022-12-28T12:48:49.029Z,99082.31
2022-12-28T12:51:39.012Z,99078.92
2022-12-28T12:54:46.355Z,99079.27
2022-12-28T12:57:23.195Z,99070.10
2022-12-28T13:00:17.759Z,99062.39
2022-12-28T13:03:02.805Z,99064.05
2022-12-28T13:05:31.206Z,99065.99
2022-12-28T13:07:59.714Z,99064.66
2022-12-28T13:10:37.162Z,99067.31
2022-12-28T13:13:04.937Z,99065.45
2022-12-28T13:15:32.236Z,99064.11
2022-12-28T13:18:11.587Z,99066.44
2022-12-28T13:21:01.110Z,99072.81
2022-12-28T13:23:29.827Z,99077.46
2022-12-28T13:26:00.102Z,99075.73
2022-12-28T13:28:28.743Z,99075.08
2022-12-28T13:31:15.255Z,99070.94
2022-12-28T13:33:41.999Z,99059.15
2022-12-28T13:36:18.549Z,99055.30
2022-12-28T13:38:45.091Z,99058.81
2022-12-28T13:41:24.294Z,99059.41
2022-12-28T13:44:02.888Z,99050.55
2022-12-28T13:46:30.691Z,99047.84
2022-12-28T13:48:58.756Z,99044.98
2022-12-28T13:51:25.430Z,99046.86
2022-12-28T13:53:57.441Z,99049.40
2022-12-28T13:56:25.175Z,99056.85
2022-12-28T13:59:02.277Z,99057.98
2022-12-28T14:01:35.482Z,99056.33
2022-12-28T14:04:42.281Z,99053.81
2022-12-28T14:06:53.964Z,99049.76
2022-12-28T14:09:21.130Z,99050.09
2022-12-28T14:11:48.744Z,99050.70
2022-12-28T14:14:16.019Z,99045.00
2022-12-28T14:16:43.532Z,99047.33
2022-12-28T14:19:11.009Z,99041.75
2022-12-28T14:21:44.540Z,99037.03
2022-12-28T14:24:14.217Z,99040.48
2022-12-28T14:26:54.636Z,99042.93
2022-12-28T14:29:28.168Z,99046.41
2022-12-28T14:31:57.714Z,99045.78
2022-12-28T14:34:30.698Z,99042.20
2022-12-28T14:36:58.530Z,99035.43
2022-12-28T14:39:37.085Z,99036.23
2022-12-28T14:42:05.968Z,99030.70
2022-12-28T14:44:37.615Z,99022.95
2022-12-28T14:47:33.658Z,99019.80
2022-12-28T14:50:02.908Z,99015.08
2022-12-28T14:52:35.910Z,99012.52
2022-12-28T14:55:21.322Z,99013.19
2022-12-28T14:57:51.109Z,99008.30
2022-12-28T15:00:26.398Z,99003.58
2022-12-28T15:02:54.415Z,98999.13
2022-12-28T15:05:43.515Z,98998.70
2022-12-28T15:08:10.846Z,98998.24
2022-12-28T15:10:46.556Z,98999.48
2022-12-28T15:13:13.551Z,99000.36
2022-12-28T15:15:40.048Z,99009.63
2022-12-28T15:18:06.822Z,99000.83
2022-12-28T15:20:35.691Z,98993.05
2022-12-28T15:23:02.615Z,98992.28
2022-12-28T15:25:32.489Z,98988.60
2022-12-28T15:27:59.166Z,98986.09
2022-12-28T15:30:29.210Z,98991.27
2022-12-28T15:32:56.302Z,98994.52
2022-12-28T15:35:23.220Z,98994.67
2022-12-28T15:37:49.703Z,98996.91
2022-12-28T15:40:16.260Z,98992.88
2022-12-28T15:42:44.440Z,98991.56
2022-12-28T15:45:12.415Z,98991.73
2022-12-28T15:47:39.456Z,98993.11
2022-12-28T15:50:06.528Z,99000.58
2022-12-28T15:52:33.075Z,98999.84
2022-12-28T15:54:59.973Z,99001.78
2022-12-28T15:57:26.634Z,99009.09
2022-12-28T15:59:54.279Z,99014.64
2022-12-28T16:02:21.681Z,99014.20
2022-12-28T16:04:48.465Z,99013.43
2022-12-28T16:07:15.106Z,99016.29
2022-12-28T16:09:41.648Z,99019.38
2022-12-28T16:12:08.229Z,99024.88
2022-12-28T16:14:34.645Z,99032.47
2022-12-28T16:17:01.310Z,99031.84
2022-12-28T16:19:27.874Z,99026.16
2022-12-28T16:21:54.483Z,99029.42
2022-12-28T16:24:20.947Z,99030.25
2022-12-28T16:26:47.518Z,99031.23
2022-12-28T16:29:14.047Z,99026.67
2022-12-28T16:31:40.852Z,99025.73
2022-12-28T16:34:13.536Z,99029.08
2022-12-28T16:36:40.501Z,99027.97
2022-12-28T16:39:11.265Z,99024.83
2022-12-28T16:41:37.932Z,99021.77
2022-12-28T16:44:12.605Z,99021.91
2022-12-28T16:46:39.292Z,99023.61
2022-12-28T16:49:05.849Z,99022.77
2022-12-28T16:51:32.324Z,99023.98
2022-12-28T16:53:58.819Z,99017.65
2022-12-28T16:56:25.321Z,99015.23
2022-12-28T16:58:58.491Z,99013.54
2022-12-28T17:01:25.097Z,99009.77
2022-12-28T17:03:52.055Z,99003.95
2022-12-28T17:06:18.578Z,98999.83
2022-12-28T17:08:45.135Z,98996.40
2022-12-28T17:11:12.404Z,98994.15
2022-12-28T17:13:38.952Z,98996.05
2022-12-28T17:16:06.535Z,98994.79
2022-12-28T17:18:33.085Z,98990.55
2022-12-28T17:21:04.846Z,98987.63
2022-12-28T17:23:33.560Z,98982.96
2022-12-28T17:26:00.064Z,98977.96
2022-12-28T17:28:26.588Z,98973.48
2022-12-28T17:31:06.897Z,98974.95
2022-12-28T17:33:38.934Z,98970.56
2022-12-28T17:36:07.556Z,98965.55
2022-12-28T17:38:34.087Z,98962.41
2022-12-28T17:41:10.002Z,98965.50
2022-12-28T17:43:36.960Z,98967.52
2022-12-28T17:46:04.476Z,98968.71
2022-12-28T17:48:31.003Z,98964.60
2022-12-28T17:51:00.678Z,98965.73
2022-12-28T17:53:28.791Z,98965.45
2022-12-28T17:55:55.281Z,98956.82
2022-12-28T17:58:21.814Z,98956.59
2022-12-28T18:00:54.263Z,98949.89
2022-12-28T18:03:21.613Z,98950.94
2022-12-28T18:05:49.279Z,98954.73
2022-12-28T18:08:16.541Z,98961.16
2022-12-28T18:10:43.878Z,98950.73
2022-12-28T18:13:11.016Z,98958.04
2022-12-28T18:15:38.081Z,98960.26
2022-12-28T18:18:05.442Z,98955.08
2022-12-28T18:20:32.498Z,98943.84
2022-12-28T18:22:58.958Z,98944.66
2022-12-28T18:25:25.454Z,98954.18
2022-12-28T18:27:51.926Z,98959.23
2022-12-28T18:30:18.439Z,98951.35
2022-12-28T18:32:44.981Z,98946.73
2022-12-28T18:35:11.463Z,98953.77
2022-12-28T18:37:38.021Z,98950.91
2022-12-28T18:40:05.328Z,98947.73
2022-12-28T18:42:31.844Z,98953.46
2022-12-28T18:44:58.361Z,98942.23
2022-12-28T18:47:25.141Z,98945.04
2022-12-28T18:49:51.671Z,98944.85
2022-12-28T18:52:18.156Z,98938.70
2022-12-28T18:54:44.872Z,98941.36
2022-12-28T18:57:11.430Z,98942.40
2022-12-28T18:59:37.895Z,98937.14
2022-12-28T19:02:07.432Z,98937.67
2022-12-28T19:04:34.889Z,98939.08
2022-12-28T19:07:02.588Z,98935.55
2022-12-28T19:09:29.187Z,98941.55
2022-12-28T19:11:55.758Z,98944.51
2022-12-28T19:14:22.442Z,98947.98
2022-12-28T19:16:49.010Z,98952.37
2022-12-28T19:19:16.908Z,98946.44
2022-12-28T19:21:43.611Z,98948.70
2022-12-28T19:24:18.154Z,98952.52
2022-12-28T19:26:46.323Z,98948.84
2022-12-28T19:29:14.965Z,98945.00
2022-12-28T19:31:41.800Z,98944.48
2022-12-28T19:34:08.427Z,98941.15
2022-12-28T19:36:34.928Z,98935.73
2022-12-28T19:39:01.552Z,98930.30
2022-12-28T19:41:28.394Z,98932.38
2022-12-28T19:43:54.996Z,98930.59
2022-12-28T19:46:30.156Z,98935.63
2022-12-28T19:48:58.262Z,98931.41
2022-12-28T19:51:30.600Z,98928.98
2022-12-28T19:53:59.201Z,98935.57
2022-12-28T19:56:25.890Z,98937.90
2022-12-28T19:58:53.795Z,98942.45
2022-12-28T20:01:25.355Z,98943.53
2022-12-28T20:03:53.496Z,98939.52
2022-12-28T20:06:26.565Z,98934.92
2022-12-28T20:09:02.181Z,98936.88
2022-12-28T20:11:28.979Z,98941.56
2022-12-28T20:13:58.739Z,98941.88
2022-12-28T20:16:27.898Z,98943.99
2022-12-28T20:18:55.191Z,98942.29
2022-12-28T20:21:24.596Z,98934.83
2022-12-28T20:23:52.653Z,98940.41
2022-12-28T20:26:20.933Z,98941.92
2022-12-28T20:28:50.483Z,98941.53
2022-12-28T20:31:17.154Z,98937.86
2022-12-28T20:33:44.008Z,98935.83
2022-12-28T20:36:16.719Z,98939.20
2022-12-28T20:38:43.770Z,98939.73
2022-12-28T20:41:31.990Z,98937.34
2022-12-28T20:44:00.013Z,98935.06
2022-12-28T20:46:26.918Z,98942.23
2022-12-28T20:48:54.324Z,98941.17
2022-12-28T20:51:21.109Z,98938.04
2022-12-28T20:53:47.624Z,98945.33
2022-12-28T20:56:14.143Z,98946.08
2022-12-28T20:58:42.917Z,98939.91
2022-12-28T21:01:12.544Z,98936.10
2022-12-28T21:03:39.481Z,98927.13
2022-12-28T21:06:06.237Z,98930.95
2022-12-28T21:08:33.641Z,98937.31
2022-12-28T21:11:00.503Z,98938.94
2022-12-28T21:13:27.929Z,98941.15
2022-12-28T21:15:54.621Z,98943.64
2022-12-28T21:18:21.839Z,98947.02
2022-12-28T21:20:54.865Z,98950.41
2022-12-28T21:23:21.615Z,98949.37
2022-12-28T21:25:48.476Z,98954.84
2022-12-28T21:28:15.270Z,98956.30
2022-12-28T21:30:41.811Z,98950.69
2022-12-28T21:33:08.372Z,98944.77
2022-12-28T21:35:35.070Z,98938.89
2022-12-28T21:38:01.626Z,98930.73
2022-12-28T21:40:28.137Z,98922.57
2022-12-28T21:42:54.601Z,98917.81
2022-12-28T21:45:21.254Z,98918.23
2022-12-28T21:47:47.732Z,98916.24
2022-12-28T21:50:14.475Z,98913.54
2022-12-28T21:52:41.075Z,98909.45
2022-12-28T21:55:26.719Z,98914.64
2022-12-28T21:57:53.566Z,98918.25
2022-12-28T22:00:39.177Z,98912.55
2022-12-28T22:03:24.608Z,98904.92
2022-12-28T22:06:03.272Z,98905.91
2022-12-28T22:08:49.373Z,98895.11
2022-12-28T22:11:34.824Z,98887.27
2022-12-28T22:14:01.434Z,98879.72
2022-12-28T22:16:30.179Z,98869.38
2022-12-28T22:19:04.177Z,98876.68
2022-12-28T22:21:31.166Z,98883.55
2022-12-28T22:23:57.740Z,98885.44
2022-12-28T22:26:24.242Z,98886.83
2022-12-28T22:28:50.813Z,98879.52
2022-12-28T22:31:17.267Z,98867.41
2022-12-28T22:33:43.811Z,98856.69
2022-12-28T22:36:18.171Z,98847.70
2022-12-28T22:38:44.800Z,98850.81
2022-12-28T22:41:11.681Z,98848.35
2022-12-28T22:43:38.171Z,98850.50
2022-12-28T22:46:10.003Z,98851.63
2022-12-28T22:48:37.222Z,98852.92
2022-12-28T22:51:06.882Z,98854.87
2022-12-28T22:53:35.765Z,98850.66
2022-12-28T22:56:05.162Z,98851.42
2022-12-28T22:58:32.352Z,98852.55
2022-12-28T23:01:05.811Z,98853.45
2022-12-28T23:03:32.405Z,98847.13
2022-12-28T23:05:58.876Z,98837.39
2022-12-28T23:08:25.364Z,98831.29
2022-12-28T23:11:00.754Z,98831.13
2022-12-28T23:13:27.952Z,98816.56
2022-12-28T23:15:58.764Z,98815.83
2022-12-28T23:18:44.362Z,98818.92
2022-12-28T23:21:35.290Z,98817.09
2022-12-28T23:24:20.627Z,98820.97
2022-12-28T23:27:05.457Z,98816.88
2022-12-28T23:29:32.036Z,98813.70
2022-12-28T23:31:59.450Z,98808.41
2022-12-28T23:34:25.958Z,98803.58
2022-12-28T23:36:52.670Z,98805.60
2022-12-28T23:39:19.232Z,98804.16
2022-12-28T23:41:48.237Z,98795.90
2022-12-28T23:44:20.033Z,98791.98
2022-12-28T23:46:47.813Z,98781.30
2022-12-28T23:49:15.896Z,98775.05
2022-12-28T23:51:44.209Z,98771.58
2022-12-28T23:54:11.923Z,98771.27
2022-12-28T23:56:38.507Z,98770.30
2022-12-28T23:59:05.530Z,98763.08
